EVV weather

Evansville Regional Airport
Evansville, Indiana, United States

Public forecast

Using degrees Fahrenheit for public forecast. Weather courtesy of forecast.io.

Current aviation weather report (METAR) for Evansville Regional Airport

Retrieved 2019/12/09 19:54 UTC (60 minutes ago):

KEVV 091954Z 23012KT 3SM -RA BR BKN009 OVC014 14/13 A2961 RMK AO2 RAB1857 SLP026 P0002 T01440128

Aviation forecast (TAF) for Evansville Regional Airport

Retrieved 2019/12/09 18:22 UTC (3 hours ago):

TAF KEVV 091720Z 0918/1018 21012G22KT 3SM -RA OVC005 FM092100 23012G20KT 4SM BR OVC009 FM100300 30015G25KT P6SM VCSH SCT009 BKN025 FM100900 31010KT P6SM SCT025 OVC100 FM101500 31008KT P6SM OVC150